Time;durP1;ratioP1;P1;durP2;ratioP2;P2;SDS_P1;SDS_P2;PMS_P1;PMS_P2;Temp;Humidity;BMP_temperature;BMP_pressure;BME280_temperature;BME280_humidity;BME280_pressure;Samples;Min_cycle;Max_cycle;Signal;HPM_P1;HPM_P2
2022/01/26 00:06:36;;;;;;;78.78;35.95;;;;;;;-0.85;100.00;101349.56;5115510;28;20393;-76
2022/01/26 00:09:06;;;;;;;80.60;36.90;;;;;;;-0.95;100.00;101351.25;5115215;28;20044;-77
2022/01/26 00:11:34;;;;;;;78.03;36.80;;;;;;;-0.97;100.00;101350.34;5114690;28;20044;-77
2022/01/26 00:14:08;;;;;;;85.95;36.65;;;;;;;-0.99;100.00;101341.63;5115509;28;20070;-77
2022/01/26 00:16:43;;;;;;;79.68;36.75;;;;;;;-0.96;100.00;101339.91;5115555;28;20395;-80
2022/01/26 00:19:19;;;;;;;79.97;36.97;;;;;;;-1.08;100.00;101344.19;5115033;28;20043;-81
2022/01/26 00:21:51;;;;;;;80.43;36.38;;;;;;;-0.98;100.00;101346.00;5115568;28;20537;-82
2022/01/26 00:24:48;;;;;;;84.28;38.33;;;;;;;-1.04;100.00;101343.38;5114846;28;20089;-80
2022/01/26 00:27:33;;;;;;;;;;;;;;;-1.20;100.00;101340.66;5115079;28;20055;-84
2022/01/26 00:31:12;;;;;;;83.10;36.38;;;;;;;-1.24;100.00;101345.88;5096551;28;19920;-84
2022/01/26 00:38:43;;;;;;;116.18;49.58;;;;;;;-1.11;100.00;101347.69;5114920;28;20044;-86
2022/01/26 00:41:15;;;;;;;116.45;49.33;;;;;;;-1.12;100.00;101340.69;5114760;28;20047;-86
2022/01/26 00:43:49;;;;;;;126.28;51.20;;;;;;;-1.26;100.00;101347.59;5115154;28;20069;-86
2022/01/26 00:46:19;;;;;;;126.68;50.38;;;;;;;-1.29;100.00;101344.97;5114680;28;20063;-86
2022/01/26 00:48:49;;;;;;;120.75;49.42;;;;;;;-1.35;100.00;101345.81;5115014;28;20477;-87
2022/01/26 00:51:20;;;;;;;106.15;46.58;;;;;;;-1.41;100.00;101347.53;5114706;28;20127;-87
2022/01/26 00:53:58;;;;;;;96.85;43.30;;;;;;;-1.31;100.00;101349.31;5114838;28;20054;-85
2022/01/26 00:56:26;;;;;;;99.75;43.67;;;;;;;-1.39;100.00;101349.28;5114364;28;20093;-87
2022/01/26 00:58:55;;;;;;;93.32;41.65;;;;;;;-1.48;100.00;101341.38;5114787;28;20040;-76
2022/01/26 01:01:23;;;;;;;92.97;41.70;;;;;;;-1.58;100.00;101353.50;5114500;28;20039;-78
2022/01/26 01:03:52;;;;;;;92.03;40.17;;;;;;;-1.76;100.00;101351.63;5114210;28;20053;-78
2022/01/26 01:06:24;;;;;;;95.57;41.03;;;;;;;-1.91;100.00;101351.53;5113922;28;20047;-77
2022/01/26 01:08:56;;;;;;;91.45;41.88;;;;;;;-1.97;100.00;101354.09;5114543;28;20451;-76
2022/01/26 01:11:25;;;;;;;92.63;42.00;;;;;;;-1.98;100.00;101349.72;5114232;28;20050;-80
2022/01/26 01:13:54;;;;;;;89.95;42.03;;;;;;;-1.91;100.00;101348.03;5114423;28;20454;-80
2022/01/26 01:16:24;;;;;;;94.95;43.60;;;;;;;-1.79;100.00;101348.13;5113842;28;20534;-79
2022/01/26 01:18:59;;;;;;;91.93;41.88;;;;;;;-1.64;100.00;101355.19;5114156;28;20147;-83
2022/01/26 01:24:50;;;;;;;93.07;40.63;;;;;;;-1.98;100.00;101354.94;5114026;28;20051;-81
2022/01/26 01:30:09;;;;;;;92.15;40.92;;;;;;;-1.85;100.00;101350.69;5100677;28;20051;-83
2022/01/26 01:32:50;;;;;;;93.55;39.15;;;;;;;-1.84;100.00;101347.19;5114337;28;20123;-77
2022/01/26 01:35:18;;;;;;;87.90;40.15;;;;;;;-1.81;100.00;101355.09;5113643;28;20433;-82
2022/01/26 01:37:47;;;;;;;87.28;39.40;;;;;;;-1.88;100.00;101343.69;5113937;28;20522;-83
2022/01/26 01:40:16;;;;;;;92.10;40.80;;;;;;;-1.84;100.00;101337.63;5113399;28;20069;-79
2022/01/26 01:42:45;;;;;;;82.68;39.25;;;;;;;-1.83;100.00;101343.75;5113750;28;20039;-79
2022/01/26 01:45:13;;;;;;;83.22;39.85;;;;;;;-1.94;100.00;101340.16;5113578;28;20036;-79
2022/01/26 01:47:41;;;;;;;84.68;38.85;;;;;;;-1.97;100.00;101346.25;5113511;28;20044;-78
2022/01/26 01:50:12;;;;;;;82.53;37.75;;;;;;;-1.95;100.00;101344.50;5113366;28;20446;-76
2022/01/26 01:52:41;;;;;;;81.00;38.20;;;;;;;-2.08;100.00;101348.78;5113901;28;20040;-79
2022/01/26 01:55:10;;;;;;;82.78;38.88;;;;;;;-2.24;100.00;101346.88;5113791;28;20051;-79
2022/01/26 01:57:39;;;;;;;90.35;40.28;;;;;;;-2.06;100.00;101346.16;5113673;28;20066;-78
2022/01/26 02:00:12;;;;;;;87.60;40.88;;;;;;;-1.91;100.00;101330.63;5113292;28;20047;-78
2022/01/26 02:02:40;;;;;;;93.13;40.03;;;;;;;-1.88;100.00;101340.22;5113579;28;20051;-78
2022/01/26 02:05:09;;;;;;;95.15;40.60;;;;;;;-1.91;100.00;101341.06;5113429;28;20047;-78
2022/01/26 02:07:37;;;;;;;90.60;41.58;;;;;;;-1.93;100.00;101340.19;5113811;28;20078;-84
2022/01/26 02:10:07;;;;;;;96.35;42.88;;;;;;;-1.94;100.00;101341.03;5113674;28;20044;-85
2022/01/26 02:12:39;;;;;;;103.28;44.78;;;;;;;-1.87;100.00;101341.97;5113287;28;20489;-79
2022/01/26 02:15:14;;;;;;;101.05;43.40;;;;;;;-1.79;100.00;101346.38;5113693;28;20430;-78
2022/01/26 02:54:12;;;;;;;82.07;36.88;;;;;;;-1.74;100.00;101323.78;5116950;28;20382;-83
2022/01/26 02:56:52;;;;;;;77.70;36.63;;;;;;;-1.76;100.00;101317.63;5117257;28;20078;-83
2022/01/26 03:02:08;;;;;;;82.35;38.25;;;;;;;-1.95;100.00;101325.31;5106550;28;20054;-83
2022/01/26 03:04:42;;;;;;;85.88;39.58;;;;;;;-1.96;100.00;101327.06;5116837;28;20089;-75
2022/01/26 03:07:16;;;;;;;83.93;37.50;;;;;;;-1.86;100.00;101323.66;5116644;28;20035;-78
2022/01/26 03:09:50;;;;;;;81.63;37.50;;;;;;;-1.87;100.00;101327.16;5116910;28;20480;-78
2022/01/26 03:12:27;;;;;;;86.10;39.00;;;;;;;-2.04;100.00;101323.50;5116599;28;20054;-83
2022/01/26 03:15:00;;;;;;;87.38;38.70;;;;;;;-2.17;100.00;101321.66;5116887;28;20431;-84
2022/01/26 03:17:43;;;;;;;90.40;37.97;;;;;;;-2.25;100.00;101324.22;5116305;28;20062;-85
2022/01/26 03:20:14;;;;;;;83.35;38.17;;;;;;;-2.21;100.00;101318.16;5116701;28;20032;-84
2022/01/26 03:28:21;;;;;;;84.32;38.05;;;;;;;-1.99;100.00;101308.75;5116720;28;20044;-87
2022/01/26 03:33:55;;;;;;;88.32;40.80;;;;;;;-2.02;100.00;101304.38;5090868;27;20358;-77
2022/01/26 03:36:27;;;;;;;85.90;38.95;;;;;;;-2.06;100.00;101309.56;5090492;28;20044;-77
2022/01/26 03:39:07;;;;;;;89.10;40.65;;;;;;;-2.26;100.00;101312.00;5090650;28;20047;-76
2022/01/26 03:41:46;;;;;;;88.15;40.88;;;;;;;-2.43;100.00;101317.06;5090340;28;20047;-76
2022/01/26 03:44:15;;;;;;;90.97;39.78;;;;;;;-2.32;100.00;101306.72;5090591;28;20048;-74
2022/01/26 03:46:45;;;;;;;89.75;40.05;;;;;;;-2.39;100.00;101315.38;5090458;28;20074;-78
2022/01/26 03:49:15;;;;;;;83.22;38.53;;;;;;;-2.57;100.00;101313.47;5090490;28;20040;-77
2022/01/26 03:51:44;;;;;;;90.93;39.97;;;;;;;-2.60;100.00;101310.81;5090014;28;20050;-78
2022/01/26 03:54:16;;;;;;;84.05;36.95;;;;;;;-2.61;100.00;101316.88;5090489;28;20068;-78
2022/01/26 03:56:44;;;;;;;85.13;38.88;;;;;;;-2.64;100.00;101324.69;5091116;28;20406;-78
2022/01/26 03:59:13;;;;;;;84.18;37.50;;;;;;;-2.72;100.00;101323.72;5090343;28;20040;-78
2022/01/26 04:01:41;;;;;;;80.25;36.47;;;;;;;-2.65;100.00;101328.16;5089746;28;20093;-78
2022/01/26 04:04:12;;;;;;;80.22;37.03;;;;;;;-2.68;100.00;101322.91;5090185;28;20086;-78
2022/01/26 04:06:42;;;;;;;81.72;38.58;;;;;;;-2.62;100.00;101322.97;5105704;28;20063;-77
2022/01/26 04:09:11;;;;;;;77.28;37.40;;;;;;;-2.69;100.00;101321.16;5090389;28;20044;-77
2022/01/26 04:11:42;;;;;;;78.75;36.30;;;;;;;-2.77;100.00;101320.22;5088298;28;20059;-77
2022/01/26 04:14:14;;;;;;;79.97;37.42;;;;;;;-2.77;100.00;101315.84;5089736;28;20463;-77
2022/01/26 04:16:44;;;;;;;78.97;37.08;;;;;;;-2.79;100.00;101319.31;5090179;28;20036;-78
2022/01/26 04:19:13;;;;;;;82.03;36.67;;;;;;;-2.81;100.00;101321.00;5089800;28;20387;-77
2022/01/26 04:24:32;;;;;;;83.70;36.03;;;;;;;-2.69;100.00;101315.94;5089361;28;20044;-77
2022/01/26 04:27:04;;;;;;;80.65;37.83;;;;;;;-2.72;100.00;101316.78;5089836;28;20064;-77
2022/01/26 04:29:34;;;;;;;86.35;37.55;;;;;;;-2.75;100.00;101302.81;5089136;28;20090;-77
2022/01/26 04:32:05;;;;;;;78.90;36.08;;;;;;;-2.79;100.00;101309.75;5089271;28;20135;-78
2022/01/26 04:34:34;;;;;;;86.45;40.50;;;;;;;-2.80;100.00;101312.31;5089371;28;20402;-78
2022/01/26 04:37:13;;;;;;;79.32;36.08;;;;;;;-2.67;100.00;101311.63;5089185;28;20123;-78
2022/01/26 04:39:47;;;;;;;80.63;37.03;;;;;;;-2.67;100.00;101311.63;5088935;28;20044;-79
2022/01/26 04:42:20;;;;;;;78.65;35.28;;;;;;;-2.58;100.00;101313.44;5089460;28;20068;-79
2022/01/26 04:44:54;;;;;;;86.10;38.08;;;;;;;-2.61;100.00;101309.03;5077436;28;20048;-80
2022/01/26 04:47:25;;;;;;;80.40;37.50;;;;;;;-2.53;100.00;101301.28;5075302;28;20047;-79
2022/01/26 04:49:53;;;;;;;86.65;39.15;;;;;;;-2.49;100.00;101303.97;5075558;28;20040;-82
2022/01/26 04:52:22;;;;;;;80.18;38.78;;;;;;;-2.46;100.00;101297.88;5075287;28;20474;-79
2022/01/26 04:54:51;;;;;;;82.85;37.40;;;;;;;-2.55;100.00;101293.44;5075304;28;20051;-81
2022/01/26 04:57:19;;;;;;;86.97;37.38;;;;;;;-2.50;100.00;101297.00;5075542;28;20043;-85
2022/01/26 04:59:47;;;;;;;81.10;36.95;;;;;;;-2.56;100.00;101306.50;5075637;28;20127;-82
2022/01/26 05:02:16;;;;;;;83.22;37.97;;;;;;;-2.63;100.00;101300.31;5074122;28;20049;-81
2022/01/26 05:04:44;;;;;;;85.22;37.35;;;;;;;-2.68;100.00;101296.81;5075020;28;20087;-82
2022/01/26 05:07:12;;;;;;;82.28;37.38;;;;;;;-2.67;100.00;101307.25;5075465;28;20037;-82
2022/01/26 05:09:42;;;;;;;81.18;38.20;;;;;;;-2.76;100.00;101293.22;5074853;28;20071;-82
2022/01/26 05:12:12;;;;;;;85.25;38.75;;;;;;;-2.81;100.00;101294.91;5075398;28;20094;-82
2022/01/26 05:14:43;;;;;;;81.95;37.22;;;;;;;-2.76;100.00;101295.84;5075078;28;20045;-84
2022/01/26 05:17:13;;;;;;;83.65;38.40;;;;;;;-2.64;100.00;101290.75;5075106;28;20477;-84
2022/01/26 05:19:41;;;;;;;87.97;39.65;;;;;;;-2.67;100.00;101299.44;5074922;28;20098;-84
2022/01/26 05:22:09;;;;;;;82.35;38.17;;;;;;;-2.54;100.00;101287.34;5074703;28;20044;-84
2022/01/26 05:24:37;;;;;;;89.25;39.38;;;;;;;-2.60;100.00;101289.94;5074527;28;20048;-84
2022/01/26 05:27:07;;;;;;;90.28;38.40;;;;;;;-2.65;100.00;101289.00;5075213;28;20044;-84
2022/01/26 05:29:36;;;;;;;86.10;38.88;;;;;;;-2.72;100.00;101295.88;5074979;28;20036;-84
2022/01/26 05:32:04;;;;;;;86.35;39.47;;;;;;;-2.79;100.00;101296.69;5074640;28;20057;-79
2022/01/26 05:34:33;;;;;;;89.97;39.60;;;;;;;-2.82;100.00;101295.75;5074525;28;20051;-79
2022/01/26 05:37:01;;;;;;;93.13;41.70;;;;;;;-2.88;100.00;101300.06;5074662;28;20050;-79
2022/01/26 05:39:31;;;;;;;90.43;42.30;;;;;;;-2.82;100.00;101296.63;5074539;28;20132;-79
2022/01/26 05:42:03;;;;;;;90.18;41.08;;;;;;;-2.83;100.00;101296.63;5074782;28;20128;-79
2022/01/26 05:44:34;;;;;;;87.35;38.58;;;;;;;-2.83;100.00;101301.84;5074214;28;20048;-79
2022/01/26 05:47:03;;;;;;;93.45;42.05;;;;;;;-2.88;100.00;101301.81;5074682;28;20124;-79
2022/01/26 05:49:32;;;;;;;86.43;39.60;;;;;;;-2.88;100.00;101310.53;5074043;28;20406;-79
2022/01/26 05:52:00;;;;;;;93.85;43.30;;;;;;;-2.92;100.00;101311.31;5074482;28;20127;-79
2022/01/26 05:54:28;;;;;;;86.45;40.30;;;;;;;-2.85;100.00;101314.03;5072871;28;20169;-80
2022/01/26 05:56:57;;;;;;;94.57;41.35;;;;;;;-2.85;100.00;101314.03;5073423;28;20456;-78
2022/01/26 05:59:25;;;;;;;89.05;40.40;;;;;;;-2.84;100.00;101310.53;5074330;28;20127;-80
2022/01/26 06:01:56;;;;;;;87.82;39.47;;;;;;;-2.68;100.00;101307.25;5074143;28;20037;-79
2022/01/26 06:04:25;;;;;;;89.25;41.15;;;;;;;-2.75;100.00;101313.25;5074065;28;20049;-80
2022/01/26 06:06:53;;;;;;;87.75;40.22;;;;;;;-2.65;100.00;101309.88;5074476;28;20152;-80
2022/01/26 06:09:22;;;;;;;90.82;40.63;;;;;;;-2.80;100.00;101307.97;5074054;28;20071;-77
2022/01/26 06:11:50;;;;;;;87.80;40.20;;;;;;;-2.82;100.00;101308.81;5073803;28;20079;-80
2022/01/26 06:14:18;;;;;;;91.68;41.30;;;;;;;-2.73;100.00;101311.53;5073886;28;20045;-79
2022/01/26 06:16:46;;;;;;;95.13;42.53;;;;;;;-2.65;100.00;101315.09;5073330;28;20040;-80
2022/01/26 06:19:16;;;;;;;87.32;40.85;;;;;;;-2.55;100.00;101309.13;5073991;28;20097;-80
2022/01/26 06:21:44;;;;;;;93.45;41.15;;;;;;;-2.50;100.00;101317.88;5074002;28;20044;-82
2022/01/26 06:24:15;;;;;;;89.78;40.85;;;;;;;-2.43;100.00;101309.22;5073486;28;20053;-78
2022/01/26 06:26:43;;;;;;;90.85;40.65;;;;;;;-2.44;100.00;101307.47;5073477;28;20070;-79
2022/01/26 06:29:12;;;;;;;90.10;40.15;;;;;;;-2.29;100.00;101303.28;5073716;28;20044;-79
2022/01/26 06:31:42;;;;;;;97.60;41.17;;;;;;;-2.36;100.00;101305.81;5073114;28;20048;-80
2022/01/26 06:34:12;;;;;;;98.03;41.90;;;;;;;-2.41;100.00;101317.09;5089628;28;20198;-79
2022/01/26 06:36:43;;;;;;;87.43;39.45;;;;;;;-2.48;100.00;101310.94;5072415;28;20394;-76
2022/01/26 06:39:12;;;;;;;85.75;41.70;;;;;;;-2.37;100.00;101314.53;5073637;28;20041;-76
2022/01/26 06:41:47;;;;;;;84.88;39.78;;;;;;;-2.37;100.00;101324.09;5073107;28;20086;-77
2022/01/26 06:44:20;;;;;;;92.47;42.38;;;;;;;-2.41;100.00;101312.75;5073553;28;20071;-77
2022/01/26 06:46:57;;;;;;;92.93;42.15;;;;;;;-2.41;100.00;101317.97;5073271;28;20036;-79
2022/01/26 06:49:31;;;;;;;94.60;41.50;;;;;;;-2.39;100.00;101321.47;5073499;28;20044;-75
2022/01/26 06:52:01;;;;;;;90.85;41.50;;;;;;;-2.50;100.00;101317.88;5073354;28;20135;-79
2022/01/26 06:54:30;;;;;;;91.78;42.03;;;;;;;-2.46;100.00;101317.03;5073354;28;20040;-77
2022/01/26 06:56:58;;;;;;;94.22;41.72;;;;;;;-2.33;100.00;101323.25;5073431;28;20044;-76
2022/01/26 06:59:27;;;;;;;90.25;41.58;;;;;;;-2.31;100.00;101319.81;5064212;28;20032;-77
2022/01/26 07:01:57;;;;;;;88.43;41.97;;;;;;;-2.35;100.00;101323.25;5072253;28;20052;-74
2022/01/26 07:04:26;;;;;;;91.20;42.90;;;;;;;-2.40;100.00;101318.84;5077436;28;20072;-73
2022/01/26 07:06:55;;;;;;;90.88;42.05;;;;;;;-2.31;100.00;101314.59;5072043;28;20123;-72
2022/01/26 07:09:24;;;;;;;94.57;42.60;;;;;;;-2.19;100.00;101318.16;5072657;28;20434;-75
2022/01/26 07:11:53;;;;;;;87.93;40.78;;;;;;;-2.16;100.00;101318.19;5070837;28;20565;-74
2022/01/26 07:19:45;;;;;;;84.50;40.75;;;;;;;-2.09;100.00;101314.78;5072486;28;20441;-78
2022/01/26 07:20:37;;;;;;;85.47;39.22;;;;;;;-1.88;100.00;101307.09;5072198;28;20533;-74
2022/01/26 07:22:55;;;;;;;83.65;38.70;;;;;;;-1.77;100.00;101308.03;5070861;28;20067;-74
2022/01/26 07:25:24;;;;;;;82.57;38.28;;;;;;;-1.64;100.00;101306.41;5071499;28;20060;-77
2022/01/26 07:27:56;;;;;;;76.32;36.67;;;;;;;-1.53;100.00;101312.56;5072016;28;20115;-78
2022/01/26 07:30:24;;;;;;;77.57;35.45;;;;;;;-1.42;100.00;101309.13;5072340;28;20058;-79
2022/01/26 07:32:53;;;;;;;85.82;39.17;;;;;;;-1.42;100.00;101306.53;5070103;28;20101;-78
2022/01/26 07:35:21;;;;;;;78.60;38.25;;;;;;;-1.36;100.00;101302.16;5072169;28;20041;-77
2022/01/26 07:37:52;;;;;;;73.38;34.83;;;;;;;-1.24;100.00;101307.50;5072146;28;20045;-79
2022/01/26 07:40:22;;;;;;;77.43;36.47;;;;;;;-1.12;100.00;101309.28;5072654;28;20064;-74
2022/01/26 07:42:52;;;;;;;84.40;41.63;;;;;;;-0.98;100.00;101307.56;5072116;28;20044;-75
2022/01/26 07:45:21;;;;;;;77.72;38.42;;;;;;;-0.90;100.00;101305.00;5072175;28;20044;-76
2022/01/26 07:47:52;;;;;;;89.57;40.25;;;;;;;-0.75;100.00;101307.66;5072069;28;20054;-78
2022/01/26 07:50:21;;;;;;;92.75;41.50;;;;;;;-0.67;100.00;101298.09;5072232;28;20044;-85
2022/01/26 07:52:51;;;;;;;84.47;38.38;;;;;;;-0.55;100.00;101301.59;5071499;28;20049;-78
2022/01/26 07:55:21;;;;;;;75.32;37.50;;;;;;;-0.48;100.00;101308.59;5071924;28;20036;-77
2022/01/26 07:57:53;;;;;;;75.15;36.53;;;;;;;-0.38;100.00;101310.38;5071680;28;20053;-78
2022/01/26 08:00:22;;;;;;;71.05;33.08;;;;;;;-0.30;100.00;101303.38;5072336;28;20044;-78
2022/01/26 08:02:51;;;;;;;67.32;32.58;;;;;;;-0.07;100.00;101304.28;5070943;28;20094;-75
2022/01/26 08:05:21;;;;;;;63.92;31.23;;;;;;;0.10;100.00;101303.41;5072224;28;20045;-75
2022/01/26 08:07:50;;;;;;;61.20;30.00;;;;;;;0.24;100.00;101306.88;5071891;28;20123;-75
2022/01/26 08:10:19;;;;;;;58.63;29.92;;;;;;;0.48;100.00;101305.94;5072190;28;20487;-75
2022/01/26 08:12:49;;;;;;;64.72;31.50;;;;;;;0.57;100.00;101306.78;5071426;28;20436;-75
2022/01/26 08:15:26;;;;;;;57.85;29.10;;;;;;;0.88;100.00;101309.34;5071765;28;20047;-76
2022/01/26 08:17:55;;;;;;;56.53;28.92;;;;;;;1.26;100.00;101297.78;5069451;28;20052;-77
2022/01/26 08:20:24;;;;;;;55.45;28.75;;;;;;;1.34;100.00;101295.97;5073749;28;20547;-77
2022/01/26 08:22:55;;;;;;;56.78;27.85;;;;;;;1.30;100.00;101302.13;5075154;28;20051;-79
2022/01/26 08:25:25;;;;;;;51.20;26.75;;;;;;;1.34;100.00;101293.34;5074150;28;20525;-82
2022/01/26 08:27:59;;;;;;;53.10;27.25;;;;;;;1.43;100.00;101295.91;5074899;28;20107;-84
2022/01/26 08:30:30;;;;;;;56.28;26.63;;;;;;;1.54;100.00;101291.44;5075814;28;20094;-87
2022/01/26 08:32:59;;;;;;;50.90;26.65;;;;;;;1.53;100.00;101286.22;5075207;28;20048;-84
2022/01/26 08:35:30;;;;;;;52.55;25.88;;;;;;;1.66;100.00;101298.41;5075660;28;20041;-88
2022/01/26 08:37:58;;;;;;;43.40;21.27;;;;;;;1.84;100.00;101292.16;5075245;28;20045;-78
2022/01/26 08:40:27;;;;;;;42.40;21.98;;;;;;;1.88;100.00;101293.84;5074573;28;20367;-87
2022/01/26 08:42:56;;;;;;;37.55;19.45;;;;;;;1.96;100.00;101297.31;5074558;28;20047;-79
2022/01/26 08:45:24;;;;;;;38.65;19.13;;;;;;;2.12;100.00;101309.41;5075641;28;20098;-86
2022/01/26 08:47:54;;;;;;;30.02;14.43;;;;;;;2.18;100.00;101292.72;5074957;28;20079;-81
2022/01/26 08:50:23;;;;;;;27.17;14.77;;;;;;;2.21;100.00;101296.19;5075373;28;20044;-82
2022/01/26 08:52:52;;;;;;;27.35;14.13;;;;;;;2.37;100.00;101296.91;5074532;28;20185;-84
2022/01/26 08:55:20;;;;;;;28.88;14.95;;;;;;;2.46;100.00;101303.84;5075223;28;20094;-83
2022/01/26 08:57:49;;;;;;;28.55;14.18;;;;;;;2.50;100.00;101301.16;5074559;28;20087;-78
2022/01/26 09:00:18;;;;;;;31.15;14.10;;;;;;;2.55;100.00;101293.22;5076878;28;20472;-77
2022/01/26 09:02:50;;;;;;;24.88;13.07;;;;;;;2.61;100.00;101301.06;5077769;28;20041;-78
2022/01/26 09:05:21;;;;;;;26.47;13.53;;;;;;;2.53;100.00;101301.16;5074928;28;20040;-75
2022/01/26 09:07:50;;;;;;;27.88;13.65;;;;;;;2.71;100.00;101302.72;5074615;28;20642;-77
2022/01/26 09:10:19;;;;;;;26.45;14.02;;;;;;;2.69;100.00;101304.47;5075009;28;20127;-80
2022/01/26 09:12:48;;;;;;;27.88;13.23;;;;;;;2.82;100.00;101303.47;5075116;28;20527;-77
2022/01/26 09:15:17;;;;;;;17.00;8.90;;;;;;;2.72;100.00;101307.09;5074958;28;20474;-77
2022/01/26 09:17:45;;;;;;;25.50;12.50;;;;;;;2.64;100.00;101302.78;5074389;28;20398;-75
2022/01/26 09:20:14;;;;;;;28.58;14.80;;;;;;;2.63;100.00;101306.31;5074781;28;20128;-72
2022/01/26 09:22:44;;;;;;;28.20;13.82;;;;;;;2.59;100.00;101305.47;5074478;28;20044;-83
2022/01/26 09:25:12;;;;;;;27.02;14.68;;;;;;;2.70;100.00;101311.50;5077125;28;20098;-75
2022/01/26 09:27:41;;;;;;;26.55;13.90;;;;;;;2.81;100.00;101296.44;5074288;28;20070;-75
2022/01/26 09:30:12;;;;;;;24.55;11.88;;;;;;;2.79;100.00;101298.19;5074611;28;20123;-74
2022/01/26 09:32:41;;;;;;;20.45;10.43;;;;;;;2.74;100.00;101296.53;5074161;28;20076;-80
2022/01/26 09:35:10;;;;;;;27.23;14.25;;;;;;;2.73;100.00;101292.16;5072767;28;20059;-79
2022/01/26 09:37:41;;;;;;;25.38;12.85;;;;;;;2.77;100.00;101291.22;5074243;28;20059;-77
2022/01/26 09:40:11;;;;;;;24.08;11.70;;;;;;;2.87;100.00;101285.81;5074182;28;20068;-77
2022/01/26 09:42:41;;;;;;;23.52;11.55;;;;;;;2.88;100.00;101282.28;5074051;28;20072;-80
2022/01/26 09:45:11;;;;;;;31.65;13.98;;;;;;;2.92;100.00;101287.53;5073856;28;20094;-82
2022/01/26 09:47:40;;;;;;;24.45;11.90;;;;;;;2.89;100.00;101277.88;5074257;28;20040;-74
2022/01/26 09:50:28;;;;;;;25.58;12.07;;;;;;;2.84;100.00;101272.69;5074216;28;20115;-77
2022/01/26 09:52:57;;;;;;;24.50;11.90;;;;;;;2.88;100.00;101276.13;5073447;28;20395;-73
2022/01/26 09:55:27;;;;;;;23.95;12.05;;;;;;;2.87;100.00;101284.94;5073656;28;20128;-79
2022/01/26 09:57:58;;;;;;;24.90;12.38;;;;;;;2.93;100.00;101284.00;5071167;28;20418;-79
2022/01/26 10:00:27;;;;;;;26.02;13.38;;;;;;;2.95;100.00;101271.69;5073829;28;20505;-79
2022/01/26 10:02:57;;;;;;;30.48;13.00;;;;;;;3.06;100.00;101282.94;5073098;28;20105;-78
2022/01/26 10:05:27;;;;;;;23.10;11.85;;;;;;;2.99;100.00;101279.53;5074020;28;20047;-86
2022/01/26 10:08:09;;;;;;;25.58;13.25;;;;;;;2.94;100.00;101275.22;5071985;28;20048;-75
2022/01/26 10:19:12;;;;;;;26.73;13.05;;;;;;;3.02;100.00;101265.44;5062598;28;20057;-80
2022/01/26 10:21:48;;;;;;;25.45;11.70;;;;;;;2.98;100.00;101255.81;5073448;28;20048;-77
2022/01/26 10:24:20;;;;;;;26.08;13.35;;;;;;;3.00;100.00;101247.00;5072773;28;20044;-79
2022/01/26 10:26:51;;;;;;;23.30;11.73;;;;;;;3.13;100.00;101256.50;5070976;28;20498;-82
2022/01/26 10:29:20;;;;;;;25.00;12.93;;;;;;;3.15;100.00;101243.28;5072811;28;20044;-76
2022/01/26 10:31:49;;;;;;;25.27;12.35;;;;;;;3.21;100.00;101247.63;5072963;28;20037;-79
2022/01/26 10:34:19;;;;;;;28.50;13.27;;;;;;;3.17;100.00;101237.09;5072965;28;20048;-76
2022/01/26 10:36:50;;;;;;;28.35;13.23;;;;;;;3.21;100.00;101231.78;5072998;28;20040;-75
2022/01/26 10:39:22;;;;;;;21.13;9.93;;;;;;;3.10;100.00;101232.81;5073117;28;20067;-78
2022/01/26 10:41:55;;;;;;;20.17;9.68;;;;;;;3.13;100.00;101234.53;5072801;28;20476;-73
2022/01/26 10:44:28;;;;;;;24.77;12.85;;;;;;;3.15;100.00;101236.25;5071526;28;20044;-72
2022/01/26 10:47:00;;;;;;;23.40;11.15;;;;;;;3.28;100.00;101231.69;5072960;28;20440;-74
2022/01/26 10:49:54;;;;;;;29.63;12.17;;;;;;;3.22;100.00;101239.69;5072714;28;20090;-73
2022/01/26 10:52:32;;;;;;;20.60;9.23;;;;;;;3.30;100.00;101227.25;5072348;28;20040;-73
2022/01/26 10:55:01;;;;;;;23.35;11.13;;;;;;;3.27;100.00;101229.91;5072593;28;20098;-72
2022/01/26 10:57:31;;;;;;;22.98;11.52;;;;;;;3.41;100.00;101225.31;5072820;28;20044;-72
2022/01/26 10:59:59;;;;;;;25.63;10.90;;;;;;;3.53;100.00;101228.66;5072926;28;20131;-71
2022/01/26 11:02:30;;;;;;;22.83;12.32;;;;;;;3.59;100.00;101220.66;5072769;28;20229;-73
2022/01/26 11:04:59;;;;;;;21.70;10.23;;;;;;;3.56;100.00;101218.06;5072933;28;20086;-71
2022/01/26 11:07:32;;;;;;;23.90;11.70;;;;;;;3.63;100.00;101217.06;5073067;28;20461;-71
2022/01/26 11:10:03;;;;;;;24.30;11.88;;;;;;;3.78;100.00;101216.81;5073082;28;20036;-72
2022/01/26 11:12:33;;;;;;;18.77;10.30;;;;;;;3.71;100.00;101217.81;5072411;28;20033;-71
2022/01/26 11:15:06;;;;;;;23.83;11.05;;;;;;;3.72;100.00;101214.28;5072718;28;20128;-71
2022/01/26 11:17:37;;;;;;;24.13;11.48;;;;;;;3.73;100.00;101216.00;5072632;28;20086;-77
2022/01/26 11:20:18;;;;;;;20.42;11.20;;;;;;;3.58;100.00;101226.84;5072516;28;20047;-75
2022/01/26 11:22:51;;;;;;;20.58;11.30;;;;;;;3.69;100.00;101225.75;5072440;28;20094;-77
2022/01/26 11:25:21;;;;;;;16.85;8.63;;;;;;;3.61;100.00;101222.38;5072293;28;20048;-76
2022/01/26 11:27:52;;;;;;;15.38;8.18;;;;;;;3.61;100.00;101217.09;5072836;28;20076;-82
2022/01/26 11:30:22;;;;;;;17.85;8.52;;;;;;;3.71;100.00;101221.31;5071352;28;20067;-80
2022/01/26 11:32:53;;;;;;;23.13;11.05;;;;;;;3.81;100.00;101219.41;5071924;28;20060;-80
2022/01/26 11:35:23;;;;;;;19.70;10.15;;;;;;;3.89;100.00;101216.63;5072212;28;20075;-81
2022/01/26 11:38:06;;;;;;;20.45;10.75;;;;;;;3.99;100.00;101212.94;5072591;28;20370;-79
2022/01/26 11:46:25;;;;;;;20.20;9.98;;;;;;;3.95;100.00;101195.38;5072535;28;20051;-77
2022/01/26 11:49:06;;;;;;;14.27;7.30;;;;;;;3.94;100.00;101183.09;5072163;28;20597;-79
2022/01/26 11:51:43;;;;;;;18.90;10.35;;;;;;;4.10;100.00;101184.56;5072233;28;20048;-77
2022/01/26 11:54:15;;;;;;;19.70;9.88;;;;;;;4.14;100.00;101201.22;5073313;28;20062;-79
2022/01/26 11:56:58;;;;;;;17.38;7.43;;;;;;;4.02;100.00;101189.09;5076001;28;20127;-79
2022/01/26 11:59:31;;;;;;;;;;;;;;;4.10;100.00;101195.13;5076586;28;20040;-78
2022/01/26 12:02:03;;;;;;;17.75;7.70;;;;;;;3.98;100.00;101185.66;5075921;28;19928;-79
2022/01/26 12:04:35;;;;;;;17.40;8.95;;;;;;;3.99;100.00;101194.44;5075092;28;20057;-84
2022/01/26 12:07:10;;;;;;;22.50;10.20;;;;;;;4.06;100.00;101187.31;5076625;28;20048;-73
2022/01/26 12:09:41;;;;;;;19.98;9.30;;;;;;;4.25;100.00;101194.84;5078673;28;20051;-73
2022/01/26 12:12:17;;;;;;;19.67;10.48;;;;;;;4.17;100.00;101180.91;5075628;28;20070;-75
2022/01/26 12:15:00;;;;;;;17.73;8.63;;;;;;;4.14;100.00;101178.31;5076026;28;20044;-76
2022/01/26 12:17:33;;;;;;;21.40;10.52;;;;;;;4.16;100.00;101186.22;5075730;28;20036;-75
2022/01/26 12:32:03;;;;;;;19.73;9.82;;;;;;;4.21;100.00;101173.78;5075278;28;20040;-77
2022/01/26 12:32:12;;;;;;;16.98;9.05;;;;;;;4.40;100.00;101175.16;5013083;28;20054;-79
2022/01/26 12:34:46;;;;;;;17.55;9.52;;;;;;;4.34;100.00;101162.06;5061988;28;20052;-80
2022/01/26 12:37:22;;;;;;;18.98;9.10;;;;;;;4.42;100.00;101162.78;5075073;28;20455;-81
2022/01/26 12:42:55;;;;;;;17.38;7.65;;;;;;;4.49;100.00;101153.84;5075032;28;20037;-80
2022/01/26 12:45:47;;;;;;;18.38;9.00;;;;;;;4.54;100.00;101153.78;5075712;28;20390;-85
2022/01/26 12:48:18;;;;;;;17.00;8.75;;;;;;;4.49;100.00;101151.19;5075199;28;20048;-80
2022/01/26 12:50:47;;;;;;;20.27;8.98;;;;;;;4.57;100.00;101146.63;5072675;28;20114;-91
2022/01/26 12:53:15;;;;;;;21.02;9.35;;;;;;;4.52;100.00;101156.41;5054583;28;20073;-84
2022/01/26 12:55:44;;;;;;;18.45;9.98;;;;;;;4.58;100.00;101140.44;5055183;28;20048;-80
2022/01/26 12:58:12;;;;;;;17.55;9.45;;;;;;;4.56;100.00;101147.53;5061826;28;20057;-78
2022/01/26 13:00:44;;;;;;;15.70;8.18;;;;;;;4.51;100.00;101159.09;5075085;28;20500;-77
2022/01/26 13:03:15;;;;;;;14.68;7.80;;;;;;;4.46;100.00;101151.28;5074404;28;20048;-79